sensor_id;sensor_type;location;lat;lon;timestamp;pressure;altitude;pressure_sealevel;temperature;humidity
41898;BME280;27576;53.366;-1.498;2023-05-02T00:00:35;100996.81;;;11.34;95.56
41898;BME280;27576;53.366;-1.498;2023-05-02T00:03:03;101023.06;;;11.50;95.91
41898;BME280;27576;53.366;-1.498;2023-05-02T00:05:28;100997.69;;;11.34;96.59
41898;BME280;27576;53.366;-1.498;2023-05-02T00:07:54;101022.13;;;11.47;96.62
41898;BME280;27576;53.366;-1.498;2023-05-02T00:10:20;101021.25;;;11.45;97.11
41898;BME280;27576;53.366;-1.498;2023-05-02T00:12:45;101045.69;;;11.58;97.63
41898;BME280;27576;53.366;-1.498;2023-05-02T00:15:11;101018.44;;;11.36;96.33
41898;BME280;27576;53.366;-1.498;2023-05-02T00:17:39;101049.09;;;11.53;97.17
41898;BME280;27576;53.366;-1.498;2023-05-02T00:20:06;101028.09;;;11.41;97.20
41898;BME280;27576;53.366;-1.498;2023-05-02T00:22:33;101027.22;;;11.41;97.78
41898;BME280;27576;53.366;-1.498;2023-05-02T00:24:59;101055.09;;;11.51;97.38
41898;BME280;27576;53.366;-1.498;2023-05-02T00:27:24;101041.00;;;11.38;98.28
41898;BME280;27576;53.366;-1.498;2023-05-02T00:29:49;100981.47;;;11.00;97.29
41898;BME280;27576;53.366;-1.498;2023-05-02T00:32:16;101036.50;;;11.29;97.34
41898;BME280;27576;53.366;-1.498;2023-05-02T00:34:42;101022.34;;;11.12;99.48
41898;BME280;27576;53.366;-1.498;2023-05-02T00:37:07;101040.66;;;11.21;98.91
41898;BME280;27576;53.366;-1.498;2023-05-02T00:39:33;101024.16;;;11.16;99.14
41898;BME280;27576;53.366;-1.498;2023-05-02T00:41:59;101050.28;;;11.27;99.64
41898;BME280;27576;53.366;-1.498;2023-05-02T00:44:25;101060.72;;;11.28;98.66
41898;BME280;27576;53.366;-1.498;2023-05-02T00:46:51;101071.09;;;11.28;97.61
41898;BME280;27576;53.366;-1.498;2023-05-02T00:49:17;100991.44;;;10.82;98.18
41898;BME280;27576;53.366;-1.498;2023-05-02T00:51:43;101041.31;;;11.11;99.28
41898;BME280;27576;53.366;-1.498;2023-05-02T00:54:10;101065.69;;;11.19;99.06
41898;BME280;27576;53.366;-1.498;2023-05-02T00:56:36;101053.47;;;11.12;100.00
41898;BME280;27576;53.366;-1.498;2023-05-02T00:59:02;101047.22;;;11.04;100.00
41898;BME280;27576;53.366;-1.498;2023-05-02T01:02:10;101066.47;;;11.15;100.00
41898;BME280;27576;53.366;-1.498;2023-05-02T01:10:20;101027.66;;;10.77;100.00
41898;BME280;27576;53.366;-1.498;2023-05-02T01:12:57;101067.00;;;10.99;100.00
41898;BME280;27576;53.366;-1.498;2023-05-02T01:15:24;101059.03;;;10.90;100.00
41898;BME280;27576;53.366;-1.498;2023-05-02T01:17:51;101037.09;;;10.75;100.00
41898;BME280;27576;53.366;-1.498;2023-05-02T01:20:20;101058.06;;;10.85;100.00
41898;BME280;27576;53.366;-1.498;2023-05-02T01:22:48;101045.75;;;10.76;100.00
41898;BME280;27576;53.366;-1.498;2023-05-02T01:25:37;101082.47;;;10.96;100.00
41898;BME280;27576;53.366;-1.498;2023-05-02T01:28:26;101079.84;;;10.93;100.00
41898;BME280;27576;53.366;-1.498;2023-05-02T01:30:54;101071.03;;;10.86;100.00
41898;BME280;27576;53.366;-1.498;2023-05-02T01:33:21;101080.66;;;10.92;100.00
41898;BME280;27576;53.366;-1.498;2023-05-02T01:35:50;101039.25;;;10.57;100.00
41898;BME280;27576;53.366;-1.498;2023-05-02T01:38:17;101085.72;;;10.86;100.00
41898;BME280;27576;53.366;-1.498;2023-05-02T01:40:44;101068.00;;;10.66;99.27
41898;BME280;27576;53.366;-1.498;2023-05-02T01:43:12;101014.44;;;10.29;99.81
41898;BME280;27576;53.366;-1.498;2023-05-02T01:45:40;101099.13;;;10.68;97.72
41898;BME280;27576;53.366;-1.498;2023-05-02T01:48:08;101048.25;;;10.34;99.60
41898;BME280;27576;53.366;-1.498;2023-05-02T01:50:35;101060.38;;;10.36;99.82
41898;BME280;27576;53.366;-1.498;2023-05-02T01:53:02;101092.00;;;10.57;100.00
41898;BME280;27576;53.366;-1.498;2023-05-02T01:55:29;101045.56;;;10.30;100.00
41898;BME280;27576;53.366;-1.498;2023-05-02T01:57:55;101048.97;;;10.29;99.57
41898;BME280;27576;53.366;-1.498;2023-05-02T02:00:22;101094.41;;;10.50;99.28
41898;BME280;27576;53.366;-1.498;2023-05-02T02:02:50;101075.22;;;10.43;100.00
41898;BME280;27576;53.366;-1.498;2023-05-02T02:05:19;101068.88;;;10.30;98.70
41898;BME280;27576;53.366;-1.498;2023-05-02T02:07:45;101073.25;;;10.33;100.00
41898;BME280;27576;53.366;-1.498;2023-05-02T02:10:11;101070.59;;;10.30;100.00
41898;BME280;27576;53.366;-1.498;2023-05-02T02:13:01;101095.22;;;10.49;100.00
41898;BME280;27576;53.366;-1.498;2023-05-02T02:15:33;101099.63;;;10.53;100.00
41898;BME280;27576;53.366;-1.498;2023-05-02T02:20:27;101094.91;;;10.37;100.00
41898;BME280;27576;53.366;-1.498;2023-05-02T02:22:53;101102.88;;;10.44;100.00
41898;BME280;27576;53.366;-1.498;2023-05-02T02:25:19;101068.47;;;10.15;100.00
41898;BME280;27576;53.366;-1.498;2023-05-02T02:27:46;101122.66;;;10.41;100.00
41898;BME280;27576;53.366;-1.498;2023-05-02T02:30:12;101128.78;;;10.44;100.00
41898;BME280;27576;53.366;-1.498;2023-05-02T02:32:41;101114.84;;;10.38;100.00
41898;BME280;27576;53.366;-1.498;2023-05-02T02:35:07;101101.72;;;10.31;100.00
41898;BME280;27576;53.366;-1.498;2023-05-02T02:37:58;101106.09;;;10.34;100.00
41898;BME280;27576;53.366;-1.498;2023-05-02T02:40:29;101117.44;;;10.38;100.00
41898;BME280;27576;53.366;-1.498;2023-05-02T02:43:07;101103.44;;;10.31;100.00
41898;BME280;27576;53.366;-1.498;2023-05-02T02:48:42;101134.78;;;10.42;100.00
41898;BME280;27576;53.366;-1.498;2023-05-02T02:51:13;101137.22;;;10.36;100.00
41898;BME280;27576;53.366;-1.498;2023-05-02T02:56:40;101122.19;;;10.22;100.00
41898;BME280;27576;53.366;-1.498;2023-05-02T02:59:25;101115.16;;;10.18;100.00
41898;BME280;27576;53.366;-1.498;2023-05-02T03:02:12;101134.53;;;10.32;100.00
41898;BME280;27576;53.366;-1.498;2023-05-02T03:04:43;101141.50;;;10.34;100.00
41898;BME280;27576;53.366;-1.498;2023-05-02T03:07:10;101118.75;;;10.23;100.00
41898;BME280;27576;53.366;-1.498;2023-05-02T03:09:43;101136.44;;;10.38;100.00
41898;BME280;27576;53.366;-1.498;2023-05-02T03:12:08;101132.88;;;10.35;100.00
41898;BME280;27576;53.366;-1.498;2023-05-02T03:14:35;101129.38;;;10.32;100.00
41898;BME280;27576;53.366;-1.498;2023-05-02T03:17:01;101089.75;;;10.03;100.00
41898;BME280;27576;53.366;-1.498;2023-05-02T03:19:26;101101.16;;;10.10;100.00
41898;BME280;27576;53.366;-1.498;2023-05-02T03:21:52;101136.16;;;10.27;100.00
41898;BME280;27576;53.366;-1.498;2023-05-02T03:24:18;101143.19;;;10.33;100.00
41898;BME280;27576;53.366;-1.498;2023-05-02T03:26:43;101126.44;;;10.20;100.00
41898;BME280;27576;53.366;-1.498;2023-05-02T03:29:09;101133.31;;;10.18;100.00
41898;BME280;27576;53.366;-1.498;2023-05-02T03:31:34;101111.34;;;10.04;100.00
41898;BME280;27576;53.366;-1.498;2023-05-02T03:34:00;101131.31;;;10.09;100.00
41898;BME280;27576;53.366;-1.498;2023-05-02T03:36:25;101119.94;;;10.03;100.00
41898;BME280;27576;53.366;-1.498;2023-05-02T03:38:51;101148.69;;;10.14;100.00
41898;BME280;27576;53.366;-1.498;2023-05-02T03:41:17;101152.22;;;10.16;100.00
41898;BME280;27576;53.366;-1.498;2023-05-02T03:43:42;101123.31;;;10.00;100.00
41898;BME280;27576;53.366;-1.498;2023-05-02T03:46:08;101152.31;;;10.19;100.00
41898;BME280;27576;53.366;-1.498;2023-05-02T03:48:34;101141.75;;;10.13;100.00
41898;BME280;27576;53.366;-1.498;2023-05-02T03:51:01;101146.25;;;10.18;100.00
41898;BME280;27576;53.366;-1.498;2023-05-02T03:53:28;101158.44;;;10.22;100.00
41898;BME280;27576;53.366;-1.498;2023-05-02T03:55:53;101096.03;;;9.80;100.00
41898;BME280;27576;53.366;-1.498;2023-05-02T03:58:19;101164.38;;;10.18;100.00
41898;BME280;27576;53.366;-1.498;2023-05-02T04:00:45;101140.56;;;10.00;100.00
41898;BME280;27576;53.366;-1.498;2023-05-02T04:03:10;101129.13;;;9.92;100.00
41898;BME280;27576;53.366;-1.498;2023-05-02T04:05:36;101142.16;;;9.95;100.00
41898;BME280;27576;53.366;-1.498;2023-05-02T04:08:02;101171.97;;;10.12;100.00
41898;BME280;27576;53.366;-1.498;2023-05-02T04:10:27;101164.19;;;10.12;100.00
41898;BME280;27576;53.366;-1.498;2023-05-02T04:12:53;101167.66;;;10.13;100.00
41898;BME280;27576;53.366;-1.498;2023-05-02T04:15:18;101167.56;;;10.09;100.00
41898;BME280;27576;53.366;-1.498;2023-05-02T04:17:43;101145.50;;;9.91;100.00
41898;BME280;27576;53.366;-1.498;2023-05-02T04:20:09;101173.47;;;10.04;100.00
41898;BME280;27576;53.366;-1.498;2023-05-02T04:22:35;101169.16;;;10.03;100.00
41898;BME280;27576;53.366;-1.498;2023-05-02T04:25:00;101120.94;;;9.76;100.00
41898;BME280;27576;53.366;-1.498;2023-05-02T04:27:26;101150.72;;;9.92;100.00
41898;BME280;27576;53.366;-1.498;2023-05-02T04:29:51;101175.22;;;10.05;100.00
41898;BME280;27576;53.366;-1.498;2023-05-02T04:32:17;101145.25;;;9.81;100.00
41898;BME280;27576;53.366;-1.498;2023-05-02T04:34:43;101141.91;;;9.86;100.00
41898;BME280;27576;53.366;-1.498;2023-05-02T04:37:08;101143.69;;;9.87;100.00
41898;BME280;27576;53.366;-1.498;2023-05-02T04:39:34;101133.13;;;9.80;100.00
41898;BME280;27576;53.366;-1.498;2023-05-02T04:41:59;101182.97;;;10.03;100.00
41898;BME280;27576;53.366;-1.498;2023-05-02T04:44:25;101145.25;;;9.81;100.00
41898;BME280;27576;53.366;-1.498;2023-05-02T04:46:51;101166.16;;;9.89;100.00
41898;BME280;27576;53.366;-1.498;2023-05-02T04:49:16;101183.59;;;9.95;100.00
41898;BME280;27576;53.366;-1.498;2023-05-02T04:51:43;101175.75;;;9.93;100.00
41898;BME280;27576;53.366;-1.498;2023-05-02T04:54:09;101096.47;;;9.35;100.00
41898;BME280;27576;53.366;-1.498;2023-05-02T04:56:35;101154.47;;;9.72;100.00
41898;BME280;27576;53.366;-1.498;2023-05-02T04:59:00;101152.78;;;9.74;100.00
41898;BME280;27576;53.366;-1.498;2023-05-02T05:01:26;101191.38;;;9.95;100.00
41898;BME280;27576;53.366;-1.498;2023-05-02T05:03:55;101190.53;;;9.97;100.00
41898;BME280;27576;53.366;-1.498;2023-05-02T05:06:20;101151.00;;;9.71;100.00
41898;BME280;27576;53.366;-1.498;2023-05-02T05:08:46;101157.19;;;9.76;100.00
41898;BME280;27576;53.366;-1.498;2023-05-02T05:11:12;101187.84;;;9.93;100.00
41898;BME280;27576;53.366;-1.498;2023-05-02T05:13:37;101204.47;;;10.01;100.00
41898;BME280;27576;53.366;-1.498;2023-05-02T05:16:03;101188.72;;;9.93;100.00
41898;BME280;27576;53.366;-1.498;2023-05-02T05:18:29;101198.31;;;9.97;100.00
41898;BME280;27576;53.366;-1.498;2023-05-02T05:20:54;101202.63;;;9.97;100.00
41898;BME280;27576;53.366;-1.498;2023-05-02T05:23:19;101205.22;;;9.97;100.00
41898;BME280;27576;53.366;-1.498;2023-05-02T05:25:45;101209.63;;;10.01;100.00
41898;BME280;27576;53.366;-1.498;2023-05-02T05:28:10;101184.25;;;9.88;100.00
41898;BME280;27576;53.366;-1.498;2023-05-02T05:30:36;101178.06;;;9.82;100.00
41898;BME280;27576;53.366;-1.498;2023-05-02T05:33:02;101178.06;;;9.82;100.00
41898;BME280;27576;53.366;-1.498;2023-05-02T05:35:27;101202.81;;;10.03;100.00
41898;BME280;27576;53.366;-1.498;2023-05-02T05:37:53;101193.00;;;9.93;100.00
41898;BME280;27576;53.366;-1.498;2023-05-02T05:40:18;101151.91;;;9.73;100.00
41898;BME280;27576;53.366;-1.498;2023-05-02T05:42:45;101148.44;;;9.71;100.00
41898;BME280;27576;53.366;-1.498;2023-05-02T05:45:10;101215.09;;;10.10;100.00
41898;BME280;27576;53.366;-1.498;2023-05-02T05:47:36;101208.88;;;10.05;100.00
41898;BME280;27576;53.366;-1.498;2023-05-02T05:50:02;101227.19;;;10.11;100.00
41898;BME280;27576;53.366;-1.498;2023-05-02T05:52:27;101235.88;;;10.13;100.00
41898;BME280;27576;53.366;-1.498;2023-05-02T05:54:53;101222.72;;;10.05;100.00
41898;BME280;27576;53.366;-1.498;2023-05-02T05:57:20;101235.06;;;10.14;100.00
41898;BME280;27576;53.366;-1.498;2023-05-02T05:59:45;101234.22;;;10.15;99.30
41898;BME280;27576;53.366;-1.498;2023-05-02T06:02:11;101200.84;;;9.94;97.55
41898;BME280;27576;53.366;-1.498;2023-05-02T06:04:38;101228.03;;;10.10;98.11
41898;BME280;27576;53.366;-1.498;2023-05-02T06:07:04;101221.72;;;10.00;96.74
41898;BME280;27576;53.366;-1.498;2023-05-02T06:09:29;101244.28;;;10.06;96.08
41898;BME280;27576;53.366;-1.498;2023-05-02T06:11:55;101241.72;;;10.06;97.45
41898;BME280;27576;53.366;-1.498;2023-05-02T06:14:20;101217.09;;;9.90;98.30
41898;BME280;27576;53.366;-1.498;2023-05-02T06:16:45;101235.44;;;9.98;95.35
41898;BME280;27576;53.366;-1.498;2023-05-02T06:19:11;101270.38;;;10.12;95.66
41898;BME280;27576;53.366;-1.498;2023-05-02T06:21:36;101215.19;;;9.83;96.88
41898;BME280;27576;53.366;-1.498;2023-05-02T06:24:02;101182.84;;;9.69;97.04
41898;BME280;27576;53.366;-1.498;2023-05-02T06:26:27;101270.63;;;10.21;96.98
41898;BME280;27576;53.366;-1.498;2023-05-02T06:28:56;101249.63;;;10.11;96.83
41898;BME280;27576;53.366;-1.498;2023-05-02T06:31:21;101270.81;;;10.26;97.76
41898;BME280;27576;53.366;-1.498;2023-05-02T06:33:46;101241.00;;;10.10;97.83
41898;BME280;27576;53.366;-1.498;2023-05-02T06:36:13;101263.91;;;10.26;97.86
41898;BME280;27576;53.366;-1.498;2023-05-02T06:38:39;101253.44;;;10.23;97.39
41898;BME280;27576;53.366;-1.498;2023-05-02T06:41:05;101270.22;;;10.36;95.93
41898;BME280;27576;53.366;-1.498;2023-05-02T06:43:30;101222.03;;;10.11;94.42
41898;BME280;27576;53.366;-1.498;2023-05-02T06:45:57;101243.03;;;10.22;93.83
41898;BME280;27576;53.366;-1.498;2023-05-02T06:48:23;101272.16;;;10.43;92.83
41898;BME280;27576;53.366;-1.498;2023-05-02T06:50:50;101247.66;;;10.32;94.42
41898;BME280;27576;53.366;-1.498;2023-05-02T06:53:16;101278.44;;;10.53;92.61
41898;BME280;27576;53.366;-1.498;2023-05-02T06:55:41;101274.06;;;10.50;90.52
41898;BME280;27576;53.366;-1.498;2023-05-02T06:58:06;101259.06;;;10.39;91.00
41898;BME280;27576;53.366;-1.498;2023-05-02T07:00:32;101269.69;;;10.48;87.29
41898;BME280;27576;53.366;-1.498;2023-05-02T07:02:57;101282.69;;;10.49;87.72
41898;BME280;27576;53.366;-1.498;2023-05-02T07:05:24;101266.19;;;10.46;88.41
41898;BME280;27576;53.366;-1.498;2023-05-02T07:07:49;101292.25;;;10.52;85.85
41898;BME280;27576;53.366;-1.498;2023-05-02T07:10:14;101299.16;;;10.51;84.42
41898;BME280;27576;53.366;-1.498;2023-05-02T07:12:40;101251.41;;;10.13;84.76
41898;BME280;27576;53.366;-1.498;2023-05-02T07:15:06;101279.41;;;10.25;85.26
41898;BME280;27576;53.366;-1.498;2023-05-02T07:17:31;101290.81;;;10.31;86.85
41898;BME280;27576;53.366;-1.498;2023-05-02T07:19:56;101284.78;;;10.32;86.44
41898;BME280;27576;53.366;-1.498;2023-05-02T07:22:22;101295.50;;;10.45;88.38
41898;BME280;27576;53.366;-1.498;2023-05-02T07:24:47;101289.34;;;10.41;86.91
41898;BME280;27576;53.366;-1.498;2023-05-02T07:27:13;101289.41;;;10.43;87.07
41898;BME280;27576;53.366;-1.498;2023-05-02T07:29:38;101289.50;;;10.46;86.65
41898;BME280;27576;53.366;-1.498;2023-05-02T07:32:04;101303.53;;;10.54;87.66
41898;BME280;27576;53.366;-1.498;2023-05-02T07:34:30;101288.00;;;10.54;89.48
41898;BME280;27576;53.366;-1.498;2023-05-02T07:36:57;101291.75;;;10.65;88.94
41898;BME280;27576;53.366;-1.498;2023-05-02T07:39:23;101299.88;;;10.79;86.83
41898;BME280;27576;53.366;-1.498;2023-05-02T07:41:52;101310.38;;;10.84;86.62
41898;BME280;27576;53.366;-1.498;2023-05-02T07:44:18;101311.25;;;10.84;85.90
41898;BME280;27576;53.366;-1.498;2023-05-02T07:46:43;101284.00;;;10.67;86.37
41898;BME280;27576;53.366;-1.498;2023-05-02T07:49:09;101290.09;;;10.69;85.88
41898;BME280;27576;53.366;-1.498;2023-05-02T07:51:34;101276.06;;;10.61;87.41
41898;BME280;27576;53.366;-1.498;2023-05-02T07:54:00;101303.41;;;10.81;87.84
41898;BME280;27576;53.366;-1.498;2023-05-02T07:56:26;101287.66;;;10.73;85.83
41898;BME280;27576;53.366;-1.498;2023-05-02T07:58:52;101308.72;;;10.86;88.17
41898;BME280;27576;53.366;-1.498;2023-05-02T08:01:17;101308.03;;;10.93;88.15
41898;BME280;27576;53.366;-1.498;2023-05-02T08:03:43;101295.84;;;10.90;86.88
41898;BME280;27576;53.366;-1.498;2023-05-02T08:06:09;101254.84;;;10.75;85.93
41898;BME280;27576;53.366;-1.498;2023-05-02T08:08:35;101305.75;;;11.05;86.01
41898;BME280;27576;53.366;-1.498;2023-05-02T08:11:01;101302.38;;;11.09;84.77
41898;BME280;27576;53.366;-1.498;2023-05-02T08:13:26;101304.06;;;11.07;83.77
41898;BME280;27576;53.366;-1.498;2023-05-02T08:15:52;101282.03;;;10.91;83.81
41898;BME280;27576;53.366;-1.498;2023-05-02T08:18:25;101294.22;;;10.94;83.39
41898;BME280;27576;53.366;-1.498;2023-05-02T08:20:51;101293.22;;;10.89;82.42
41898;BME280;27576;53.366;-1.498;2023-05-02T08:23:17;101320.47;;;11.06;81.75
41898;BME280;27576;53.366;-1.498;2023-05-02T08:25:43;101301.81;;;10.86;83.88
41898;BME280;27576;53.366;-1.498;2023-05-02T08:28:08;101317.47;;;10.91;83.55
41898;BME280;27576;53.366;-1.498;2023-05-02T08:30:34;101328.13;;;11.01;84.04
41898;BME280;27576;53.366;-1.498;2023-05-02T08:32:59;101326.50;;;11.05;83.63
41898;BME280;27576;53.366;-1.498;2023-05-02T08:35:24;101318.75;;;11.06;82.46
41898;BME280;27576;53.366;-1.498;2023-05-02T08:37:50;101319.63;;;11.07;82.00
41898;BME280;27576;53.366;-1.498;2023-05-02T08:40:16;101321.63;;;11.17;81.29
41898;BME280;27576;53.366;-1.498;2023-05-02T08:42:43;101314.44;;;11.07;79.61
41898;BME280;27576;53.366;-1.498;2023-05-02T08:45:10;101321.53;;;11.14;79.77
41898;BME280;27576;53.366;-1.498;2023-05-02T08:47:38;101293.53;;;11.01;81.33
41898;BME280;27576;53.366;-1.498;2023-05-02T08:50:05;101287.66;;;11.08;81.35
41898;BME280;27576;53.366;-1.498;2023-05-02T08:52:31;101266.06;;;11.09;79.53
41898;BME280;27576;53.366;-1.498;2023-05-02T08:54:59;101306.31;;;11.28;78.36
41898;BME280;27576;53.366;-1.498;2023-05-02T08:57:27;101325.56;;;11.38;76.07
41898;BME280;27576;53.366;-1.498;2023-05-02T08:59:53;101307.22;;;11.30;77.30
41898;BME280;27576;53.366;-1.498;2023-05-02T09:04:50;101328.44;;;11.48;79.05
41898;BME280;27576;53.366;-1.498;2023-05-02T09:07:18;101297.97;;;11.41;79.06
41898;BME280;27576;53.366;-1.498;2023-05-02T09:09:43;101313.31;;;11.68;78.02
41898;BME280;27576;53.366;-1.498;2023-05-02T09:12:08;101317.75;;;11.74;77.45
41898;BME280;27576;53.366;-1.498;2023-05-02T09:14:34;101305.72;;;11.77;77.30
41898;BME280;27576;53.366;-1.498;2023-05-02T09:17:00;101320.72;;;11.89;75.48
41898;BME280;27576;53.366;-1.498;2023-05-02T09:19:26;101315.63;;;11.92;76.07
41898;BME280;27576;53.366;-1.498;2023-05-02T09:21:51;101315.63;;;11.94;75.13
41898;BME280;27576;53.366;-1.498;2023-05-02T09:24:19;101327.91;;;11.99;75.20
41898;BME280;27576;53.366;-1.498;2023-05-02T09:27:03;101334.09;;;12.06;74.60
41898;BME280;27576;53.366;-1.498;2023-05-02T09:29:31;101296.59;;;11.93;75.55
41898;BME280;27576;53.366;-1.498;2023-05-02T09:32:04;101321.25;;;12.12;74.22
41898;BME280;27576;53.366;-1.498;2023-05-02T09:34:29;101300.53;;;12.15;75.16
41898;BME280;27576;53.366;-1.498;2023-05-02T09:36:55;101326.22;;;12.44;75.72
41898;BME280;27576;53.366;-1.498;2023-05-02T09:39:26;101304.63;;;12.48;73.71
41898;BME280;27576;53.366;-1.498;2023-05-02T09:41:56;101316.41;;;12.74;74.78
41898;BME280;27576;53.366;-1.498;2023-05-02T09:44:23;101324.66;;;13.00;74.24
41898;BME280;27576;53.366;-1.498;2023-05-02T09:46:53;101325.84;;;13.19;71.78
41898;BME280;27576;53.366;-1.498;2023-05-02T09:49:38;101299.78;;;13.16;68.73
41898;BME280;27576;53.366;-1.498;2023-05-02T09:52:15;101304.53;;;13.39;69.14
41898;BME280;27576;53.366;-1.498;2023-05-02T09:54:42;101331.09;;;13.74;71.11
41898;BME280;27576;53.366;-1.498;2023-05-02T09:57:08;101332.28;;;13.96;67.03
41898;BME280;27576;53.366;-1.498;2023-05-02T09:59:35;101329.53;;;13.85;66.31
41898;BME280;27576;53.366;-1.498;2023-05-02T10:02:02;101334.97;;;14.02;67.24
41898;BME280;27576;53.366;-1.498;2023-05-02T10:04:31;101287.03;;;13.89;64.70
41898;BME280;27576;53.366;-1.498;2023-05-02T10:06:57;101331.38;;;13.94;65.70
41898;BME280;27576;53.366;-1.498;2023-05-02T10:09:24;101338.28;;;13.90;69.85
41898;BME280;27576;53.366;-1.498;2023-05-02T10:11:51;101343.69;;;14.04;69.12
41898;BME280;27576;53.366;-1.498;2023-05-02T10:14:19;101337.56;;;14.02;69.99
41898;BME280;27576;53.366;-1.498;2023-05-02T10:16:54;101355.06;;;14.11;65.06
41898;BME280;27576;53.366;-1.498;2023-05-02T10:19:23;101325.22;;;13.89;66.03
41898;BME280;27576;53.366;-1.498;2023-05-02T10:21:52;101336.47;;;13.86;65.58
41898;BME280;27576;53.366;-1.498;2023-05-02T10:24:19;101343.47;;;13.87;66.29
41898;BME280;27576;53.366;-1.498;2023-05-02T10:26:46;101339.84;;;13.78;66.34
41898;BME280;27576;53.366;-1.498;2023-05-02T10:29:12;101351.13;;;13.77;67.19
41898;BME280;27576;53.366;-1.498;2023-05-02T10:31:38;101348.31;;;13.64;66.58
41898;BME280;27576;53.366;-1.498;2023-05-02T10:34:06;101355.34;;;13.68;67.64
41898;BME280;27576;53.366;-1.498;2023-05-02T10:36:34;101335.19;;;13.58;69.12
41898;BME280;27576;53.366;-1.498;2023-05-02T10:39:01;101362.28;;;13.69;68.24
41898;BME280;27576;53.366;-1.498;2023-05-02T10:41:29;101348.25;;;13.60;66.78
41898;BME280;27576;53.366;-1.498;2023-05-02T10:43:57;101346.22;;;13.40;67.38
41898;BME280;27576;53.366;-1.498;2023-05-02T10:46:36;101339.97;;;13.31;65.91
41898;BME280;27576;53.366;-1.498;2023-05-02T10:49:10;101387.06;;;13.44;67.55
41898;BME280;27576;53.366;-1.498;2023-05-02T10:51:40;101383.56;;;13.42;68.53
41898;BME280;27576;53.366;-1.498;2023-05-02T10:54:21;101371.47;;;13.46;68.50
41898;BME280;27576;53.366;-1.498;2023-05-02T10:57:13;101376.88;;;13.58;68.80
41898;BME280;27576;53.366;-1.498;2023-05-02T10:59:40;101369.13;;;13.63;70.86
41898;BME280;27576;53.366;-1.498;2023-05-02T11:05:02;101381.69;;;13.88;69.58
41898;BME280;27576;53.366;-1.498;2023-05-02T11:07:31;101340.59;;;13.70;69.04
41898;BME280;27576;53.366;-1.498;2023-05-02T11:12:57;101359.69;;;14.32;67.34
41898;BME280;27576;53.366;-1.498;2023-05-02T11:18:02;101331.31;;;14.56;65.88
41898;BME280;27576;53.366;-1.498;2023-05-02T11:20:29;101342.75;;;14.69;65.72
41898;BME280;27576;53.366;-1.498;2023-05-02T11:22:57;101342.06;;;14.84;64.43
41898;BME280;27576;53.366;-1.498;2023-05-02T11:25:35;101334.97;;;14.73;62.15
41898;BME280;27576;53.366;-1.498;2023-05-02T11:28:01;101353.19;;;14.69;63.45
41898;BME280;27576;53.366;-1.498;2023-05-02T11:30:44;101367.03;;;14.62;63.03
41898;BME280;27576;53.366;-1.498;2023-05-02T11:33:13;101362.72;;;14.65;64.57
41898;BME280;27576;53.366;-1.498;2023-05-02T11:35:41;101360.19;;;14.71;65.25
41898;BME280;27576;53.366;-1.498;2023-05-02T11:38:14;101375.88;;;14.75;62.86
41898;BME280;27576;53.366;-1.498;2023-05-02T11:40:48;101367.06;;;14.63;64.27
41898;BME280;27576;53.366;-1.498;2023-05-02T11:43:16;101374.97;;;14.72;64.56
41898;BME280;27576;53.366;-1.498;2023-05-02T11:45:42;101329.53;;;14.52;63.80
41898;BME280;27576;53.366;-1.498;2023-05-02T11:48:08;101372.50;;;14.85;63.55
41898;BME280;27576;53.366;-1.498;2023-05-02T11:50:42;101379.47;;;14.84;61.68
41898;BME280;27576;53.366;-1.498;2023-05-02T11:53:18;101359.41;;;14.79;62.56
41898;BME280;27576;53.366;-1.498;2023-05-02T11:55:49;101366.38;;;14.78;63.26
41898;BME280;27576;53.366;-1.498;2023-05-02T11:58:23;101368.16;;;14.84;64.66
41898;BME280;27576;53.366;-1.498;2023-05-02T12:00:49;101371.66;;;14.86;64.91
41898;BME280;27576;53.366;-1.498;2023-05-02T12:03:22;101338.53;;;14.80;65.43
41898;BME280;27576;53.366;-1.498;2023-05-02T12:05:49;101361.41;;;15.04;64.72
41898;BME280;27576;53.366;-1.498;2023-05-02T12:08:27;101320.38;;;14.92;63.86
41898;BME280;27576;53.366;-1.498;2023-05-02T12:10:55;101373.03;;;15.38;65.21
41898;BME280;27576;53.366;-1.498;2023-05-02T12:13:23;101353.00;;;15.39;61.83
41898;BME280;27576;53.366;-1.498;2023-05-02T12:15:49;101344.31;;;15.40;63.19
41898;BME280;27576;53.366;-1.498;2023-05-02T12:18:16;101380.16;;;15.59;63.92
41898;BME280;27576;53.366;-1.498;2023-05-02T12:20:43;101373.28;;;15.66;62.23
41898;BME280;27576;53.366;-1.498;2023-05-02T12:23:09;101368.13;;;15.74;63.39
41898;BME280;27576;53.366;-1.498;2023-05-02T12:25:40;101363.81;;;15.82;62.61
41898;BME280;27576;53.366;-1.498;2023-05-02T12:28:06;101333.22;;;15.67;60.28
41898;BME280;27576;53.366;-1.498;2023-05-02T12:30:33;101361.25;;;15.89;60.42
41898;BME280;27576;53.366;-1.498;2023-05-02T12:33:00;101362.13;;;15.91;59.42
41898;BME280;27576;53.366;-1.498;2023-05-02T12:35:27;101352.47;;;15.83;60.92
41898;BME280;27576;53.366;-1.498;2023-05-02T12:37:53;101364.78;;;15.99;61.83
41898;BME280;27576;53.366;-1.498;2023-05-02T12:40:19;101364.03;;;16.15;62.55
41898;BME280;27576;53.366;-1.498;2023-05-02T12:43:02;101294.22;;;16.02;60.06
41898;BME280;27576;53.366;-1.498;2023-05-02T12:45:29;101329.22;;;16.32;59.31
41898;BME280;27576;53.366;-1.498;2023-05-02T12:47:59;101339.66;;;16.26;58.28
41898;BME280;27576;53.366;-1.498;2023-05-02T12:50:37;101356.25;;;16.38;60.57
41898;BME280;27576;53.366;-1.498;2023-05-02T12:53:03;101337.13;;;16.52;61.93
41898;BME280;27576;53.366;-1.498;2023-05-02T12:55:29;101334.63;;;16.84;62.64
41898;BME280;27576;53.366;-1.498;2023-05-02T13:00:25;101353.88;;;17.29;54.47
41898;BME280;27576;53.366;-1.498;2023-05-02T13:02:51;101364.38;;;17.30;58.36
41898;BME280;27576;53.366;-1.498;2023-05-02T13:05:17;101348.63;;;17.29;58.33
41898;BME280;27576;53.366;-1.498;2023-05-02T13:07:43;101339.91;;;17.39;57.94